createdAt,value
2023-02-16T00:01:21.649Z,50.35
2023-02-16T00:03:49.132Z,50.67
2023-02-16T00:06:16.421Z,52.88
2023-02-16T00:08:44.452Z,55.25
2023-02-16T00:11:56.335Z,49.58
2023-02-16T00:14:26.182Z,54.25
2023-02-16T00:16:54.413Z,56.80
2023-02-16T00:19:23.629Z,48.72
2023-02-16T00:21:51.717Z,53.63
2023-02-16T00:24:19.224Z,55.45
2023-02-16T00:26:47.006Z,55.30
2023-02-16T00:29:34.370Z,54.03
2023-02-16T00:32:02.587Z,54.80
2023-02-16T00:34:35.731Z,50.35
2023-02-16T00:37:07.054Z,63.22
2023-02-16T00:39:34.577Z,56.15
2023-02-16T00:42:06.004Z,58.50
2023-02-16T00:44:40.171Z,50.47
2023-02-16T00:47:10.852Z,62.53
2023-02-16T00:49:37.954Z,56.53
2023-02-16T00:52:19.223Z,54.97
2023-02-16T00:54:46.450Z,53.00
2023-02-16T00:57:16.936Z,56.22
2023-02-16T00:59:44.120Z,60.72
2023-02-16T01:02:11.413Z,56.85
2023-02-16T01:04:38.613Z,57.80
2023-02-16T01:07:31.371Z,56.40
2023-02-16T01:10:17.261Z,54.00
2023-02-16T01:12:44.858Z,55.55
2023-02-16T01:15:16.177Z,56.63
2023-02-16T01:17:43.380Z,59.45
2023-02-16T01:20:16.684Z,61.67
2023-02-16T01:22:43.937Z,59.90
2023-02-16T01:25:11.214Z,59.78
2023-02-16T01:27:39.258Z,65.32
2023-02-16T01:30:07.464Z,59.67
2023-02-16T01:32:34.594Z,54.13
2023-02-16T01:35:01.655Z,56.60
2023-02-16T01:37:29.833Z,54.35
2023-02-16T01:39:57.232Z,58.15
2023-02-16T01:42:24.516Z,57.80
2023-02-16T01:44:57.963Z,67.47
2023-02-16T01:47:40.636Z,54.22
2023-02-16T01:50:24.266Z,58.97
2023-02-16T01:52:56.200Z,55.92
2023-02-16T01:55:25.983Z,60.42
2023-02-16T01:57:57.121Z,57.38
2023-02-16T02:00:42.989Z,62.33
2023-02-16T02:03:37.871Z,58.95
2023-02-16T02:06:05.420Z,54.33
2023-02-16T02:08:51.907Z,65.25
2023-02-16T02:11:30.604Z,62.70
2023-02-16T02:13:58.319Z,57.75
2023-02-16T02:16:28.489Z,64.32
2023-02-16T02:18:55.870Z,63.70
2023-02-16T02:21:51.491Z,64.28
2023-02-16T02:24:18.679Z,58.95
2023-02-16T02:27:04.586Z,65.75
2023-02-16T02:29:41.410Z,64.60
2023-02-16T02:32:11.949Z,59.05
2023-02-16T02:34:56.399Z,61.25
2023-02-16T02:37:41.984Z,60.35
2023-02-16T02:40:32.300Z,60.25
2023-02-16T02:43:14.968Z,62.60
2023-02-16T02:45:49.685Z,61.80
2023-02-16T02:48:16.774Z,65.78
2023-02-16T02:51:10.965Z,59.80
2023-02-16T02:53:44.782Z,57.25
2023-02-16T02:56:33.160Z,58.53
2023-02-16T02:59:24.163Z,64.75
2023-02-16T03:01:55.165Z,55.28
2023-02-16T03:04:25.876Z,61.33
2023-02-16T03:06:54.391Z,60.55
2023-02-16T03:09:21.621Z,63.17
2023-02-16T03:12:09.058Z,61.47
2023-02-16T03:14:38.636Z,62.35
2023-02-16T03:17:26.867Z,64.40
2023-02-16T03:20:13.381Z,64.45
2023-02-16T03:23:00.019Z,54.15
2023-02-16T03:25:48.356Z,67.32
2023-02-16T03:28:37.161Z,70.07
2023-02-16T03:31:05.666Z,56.13
2023-02-16T03:33:33.060Z,62.15
2023-02-16T03:36:00.489Z,64.95
2023-02-16T03:38:27.796Z,58.72
2023-02-16T03:40:55.463Z,57.70
2023-02-16T03:43:25.609Z,60.75
2023-02-16T03:45:52.761Z,59.03
2023-02-16T03:48:20.014Z,62.03
2023-02-16T03:50:47.284Z,66.80
2023-02-16T03:53:15.104Z,62.13
2023-02-16T03:55:44.824Z,60.78
2023-02-16T03:58:13.040Z,58.95
2023-02-16T04:00:40.614Z,62.05
2023-02-16T04:03:09.090Z,60.78
2023-02-16T04:05:36.644Z,57.65
2023-02-16T04:08:03.997Z,65.15
2023-02-16T04:10:31.124Z,63.47
2023-02-16T04:12:58.230Z,58.92
2023-02-16T04:15:26.576Z,59.33
2023-02-16T04:17:54.178Z,61.20
2023-02-16T04:20:26.166Z,62.78
2023-02-16T04:22:53.763Z,59.08
2023-02-16T04:25:21.325Z,60.80
2023-02-16T04:27:49.822Z,62.45
2023-02-16T04:30:19.331Z,67.10
2023-02-16T04:32:46.688Z,68.28
2023-02-16T04:35:15.549Z,70.53
2023-02-16T04:37:42.831Z,65.88
2023-02-16T04:40:13.525Z,67.18
2023-02-16T04:42:44.075Z,69.00
2023-02-16T04:45:11.797Z,65.07
2023-02-16T04:47:38.987Z,57.97
2023-02-16T04:50:06.514Z,58.30
2023-02-16T04:52:34.222Z,66.40
2023-02-16T04:55:01.399Z,61.78
2023-02-16T04:57:28.675Z,56.60
2023-02-16T04:59:55.816Z,59.05
2023-02-16T05:02:23.206Z,62.13
2023-02-16T05:04:51.640Z,66.05
2023-02-16T05:07:18.808Z,58.72
2023-02-16T05:09:45.892Z,60.33
2023-02-16T05:12:31.902Z,62.47
2023-02-16T05:14:59.047Z,64.75
2023-02-16T05:17:26.684Z,61.95
2023-02-16T05:19:57.974Z,63.00
2023-02-16T05:22:25.520Z,63.95
2023-02-16T05:24:53.107Z,61.67
2023-02-16T05:27:24.443Z,62.38
2023-02-16T05:29:51.605Z,58.10
2023-02-16T05:32:19.246Z,61.60
2023-02-16T05:34:46.370Z,58.60
2023-02-16T05:37:14.420Z,64.13
2023-02-16T05:39:41.591Z,61.95
2023-02-16T05:42:08.853Z,65.28
2023-02-16T05:44:36.115Z,55.45
2023-02-16T05:47:03.240Z,64.10
2023-02-16T05:49:30.408Z,59.08
2023-02-16T05:51:57.484Z,58.00
2023-02-16T05:54:24.777Z,61.67
2023-02-16T05:56:52.836Z,55.90
2023-02-16T05:59:20.269Z,61.83
2023-02-16T06:01:51.276Z,64.45
2023-02-16T06:04:19.283Z,61.70
2023-02-16T06:06:46.413Z,59.72
2023-02-16T06:09:13.522Z,61.13
2023-02-16T06:11:40.712Z,58.53
2023-02-16T06:14:12.217Z,67.43
2023-02-16T06:16:40.538Z,59.43
2023-02-16T06:19:07.858Z,58.72
2023-02-16T06:21:35.369Z,62.97
2023-02-16T06:24:02.914Z,66.25
2023-02-16T06:26:30.472Z,64.63
2023-02-16T06:28:57.585Z,59.20
2023-02-16T06:31:25.301Z,55.75
2023-02-16T06:33:53.051Z,65.53
2023-02-16T06:36:20.691Z,62.05
2023-02-16T06:38:47.990Z,57.60
2023-02-16T06:41:31.120Z,60.25
2023-02-16T06:43:59.538Z,65.72
2023-02-16T06:46:29.577Z,61.33
2023-02-16T06:48:56.864Z,59.42
2023-02-16T06:51:24.310Z,65.72
2023-02-16T06:53:51.460Z,60.55
2023-02-16T06:56:18.642Z,62.42
2023-02-16T06:58:45.750Z,62.85
2023-02-16T07:01:12.942Z,62.20
2023-02-16T07:03:40.321Z,72.97
2023-02-16T07:06:07.523Z,62.85
2023-02-16T07:08:35.849Z,64.68
2023-02-16T07:11:03.395Z,65.70
2023-02-16T07:13:30.665Z,67.28
2023-02-16T07:15:58.321Z,57.33
2023-02-16T07:18:25.422Z,67.05
2023-02-16T07:20:52.501Z,59.08
2023-02-16T07:23:19.729Z,61.72
2023-02-16T07:25:48.397Z,62.15
2023-02-16T07:28:15.618Z,64.28
2023-02-16T07:30:42.757Z,59.72
2023-02-16T07:33:10.163Z,62.70
2023-02-16T07:35:37.653Z,67.60
2023-02-16T07:38:05.848Z,65.78
2023-02-16T07:40:33.101Z,64.43
2023-02-16T07:43:01.216Z,64.90
2023-02-16T07:45:28.698Z,67.57
2023-02-16T07:47:55.826Z,67.30
2023-02-16T07:50:22.943Z,70.28
2023-02-16T07:52:50.125Z,64.57
2023-02-16T07:55:17.368Z,67.60
2023-02-16T07:57:44.497Z,63.13
2023-02-16T08:00:11.861Z,57.88
2023-02-16T08:02:39.158Z,61.90
2023-02-16T08:05:06.642Z,59.70
2023-02-16T08:07:33.769Z,69.97
2023-02-16T08:10:01.230Z,58.38
2023-02-16T08:12:28.311Z,62.45
2023-02-16T08:14:55.466Z,61.00
2023-02-16T08:17:22.576Z,66.15
2023-02-16T08:19:50.592Z,63.00
2023-02-16T08:22:18.396Z,64.88
2023-02-16T08:24:45.519Z,71.38
2023-02-16T08:27:12.741Z,64.90
2023-02-16T08:29:41.470Z,67.95
2023-02-16T08:32:11.085Z,68.15
2023-02-16T08:34:38.686Z,65.40
2023-02-16T08:37:06.123Z,66.78
2023-02-16T08:39:33.708Z,65.70
2023-02-16T08:42:01.616Z,63.70
2023-02-16T08:44:30.182Z,69.15
2023-02-16T08:46:59.287Z,67.30
2023-02-16T08:49:27.523Z,62.78
2023-02-16T08:51:55.726Z,70.30
2023-02-16T08:54:27.917Z,63.95
2023-02-16T08:56:55.761Z,68.15
2023-02-16T08:59:23.774Z,78.35
2023-02-16T09:01:51.336Z,63.70
2023-02-16T09:04:19.900Z,69.50
2023-02-16T09:06:48.355Z,56.78
2023-02-16T09:09:15.501Z,62.42
2023-02-16T09:11:42.661Z,62.42
2023-02-16T09:14:10.426Z,66.18
2023-02-16T09:16:39.483Z,62.45
2023-02-16T09:19:07.525Z,61.85
2023-02-16T09:21:34.717Z,72.85
2023-02-16T09:24:04.373Z,66.13
2023-02-16T09:26:33.232Z,75.55
2023-02-16T09:29:01.838Z,66.22
2023-02-16T09:31:30.885Z,62.63
2023-02-16T09:34:07.704Z,60.47
2023-02-16T09:36:35.205Z,66.53
2023-02-16T09:39:02.573Z,62.90
2023-02-16T09:41:41.886Z,60.85
2023-02-16T09:44:32.440Z,67.47
2023-02-16T09:47:01.582Z,65.65
2023-02-16T09:49:36.996Z,62.88
2023-02-16T09:52:18.959Z,62.28
2023-02-16T09:54:49.111Z,62.87
2023-02-16T09:57:26.739Z,57.17
2023-02-16T10:00:18.552Z,65.85
2023-02-16T10:02:48.990Z,58.40
2023-02-16T10:05:20.131Z,57.83
2023-02-16T10:08:09.459Z,57.50
2023-02-16T10:10:42.565Z,59.15
2023-02-16T10:13:16.169Z,62.15
2023-02-16T10:15:44.773Z,53.58
2023-02-16T10:18:18.547Z,62.17
2023-02-16T10:20:49.015Z,56.35
2023-02-16T10:23:41.483Z,61.30
2023-02-16T10:26:18.124Z,59.42
2023-02-16T10:28:47.401Z,58.53
2023-02-16T10:31:18.987Z,59.05
2023-02-16T10:33:54.798Z,61.78
2023-02-16T10:36:30.021Z,62.30
2023-02-16T10:39:08.264Z,74.53
2023-02-16T10:41:42.026Z,61.60
2023-02-16T10:44:09.379Z,64.68
2023-02-16T10:46:38.984Z,66.82
2023-02-16T10:49:06.183Z,67.45
2023-02-16T10:51:37.668Z,72.63
2023-02-16T10:54:07.728Z,58.35
2023-02-16T10:56:56.746Z,67.65
2023-02-16T10:59:25.626Z,66.30
2023-02-16T11:01:57.551Z,72.63
2023-02-16T11:04:32.174Z,65.00
2023-02-16T11:07:15.957Z,67.22
2023-02-16T11:09:46.543Z,65.43
2023-02-16T11:12:28.596Z,73.07
2023-02-16T11:14:59.426Z,81.20
2023-02-16T11:17:31.261Z,77.38
2023-02-16T11:20:05.626Z,70.63
2023-02-16T11:22:37.305Z,77.75
2023-02-16T11:25:21.219Z,63.97
2023-02-16T11:27:58.746Z,71.88
2023-02-16T11:30:32.178Z,69.95
2023-02-16T11:33:01.133Z,69.53
2023-02-16T11:35:28.374Z,73.07
2023-02-16T11:37:55.876Z,70.43
2023-02-16T11:40:24.588Z,68.80
2023-02-16T11:42:52.987Z,71.15
2023-02-16T11:45:27.110Z,74.75
2023-02-16T11:47:56.624Z,68.30
2023-02-16T11:50:25.673Z,72.70
2023-02-16T11:52:55.774Z,74.18
2023-02-16T11:55:33.301Z,84.40
2023-02-16T11:58:19.221Z,76.38
2023-02-16T12:00:54.716Z,74.13
2023-02-16T12:03:25.100Z,72.38
2023-02-16T12:06:04.257Z,77.38
2023-02-16T12:08:46.709Z,72.32
2023-02-16T12:11:30.910Z,84.50
2023-02-16T12:14:01.674Z,80.05
2023-02-16T12:16:41.680Z,74.82
2023-02-16T12:19:08.771Z,78.30
2023-02-16T12:21:45.366Z,90.15
2023-02-16T12:24:22.520Z,79.00
2023-02-16T12:26:54.850Z,88.25
2023-02-16T12:29:25.068Z,88.65
2023-02-16T12:32:15.914Z,88.20
2023-02-16T12:35:01.831Z,91.25
2023-02-16T12:37:34.812Z,93.22
2023-02-16T12:40:17.881Z,87.40
2023-02-16T12:42:51.196Z,86.45
2023-02-16T12:45:23.421Z,85.82
2023-02-16T12:47:54.921Z,82.63
2023-02-16T12:50:24.456Z,85.90
2023-02-16T12:52:52.177Z,85.40
2023-02-16T12:55:31.750Z,83.95
2023-02-16T12:58:02.817Z,79.88
2023-02-16T13:00:36.234Z,82.72
2023-02-16T13:03:17.869Z,78.57
2023-02-16T13:05:47.257Z,84.70
2023-02-16T13:08:39.881Z,78.53
2023-02-16T13:11:22.341Z,77.10
2023-02-16T13:13:50.777Z,77.57
2023-02-16T13:16:30.569Z,81.95
2023-02-16T13:18:58.632Z,78.72
2023-02-16T13:21:28.539Z,73.95
2023-02-16T13:24:04.222Z,83.47
2023-02-16T13:26:41.910Z,80.25
2023-02-16T13:29:29.078Z,67.53
2023-02-16T13:32:09.745Z,75.50
2023-02-16T13:34:38.196Z,78.20
2023-02-16T13:37:26.781Z,69.65
2023-02-16T13:39:59.832Z,68.65
2023-02-16T13:42:30.038Z,75.95
2023-02-16T13:44:58.629Z,68.05
2023-02-16T13:47:30.804Z,70.35
2023-02-16T13:50:06.174Z,73.95
2023-02-16T13:52:41.807Z,70.55
2023-02-16T13:55:21.961Z,65.78
2023-02-16T13:57:50.582Z,69.32
2023-02-16T14:00:30.507Z,73.97
2023-02-16T14:02:59.673Z,67.97
2023-02-16T14:05:28.800Z,70.03
2023-02-16T14:08:13.203Z,70.50
2023-02-16T14:10:55.377Z,69.25
2023-02-16T14:13:25.606Z,67.00
2023-02-16T14:15:53.754Z,71.28
2023-02-16T14:18:31.305Z,69.88
2023-02-16T14:21:06.328Z,74.45
2023-02-16T14:23:35.196Z,66.53
2023-02-16T14:26:07.090Z,64.97
2023-02-16T14:28:35.351Z,68.13
2023-02-16T14:31:04.377Z,68.63
2023-02-16T14:33:37.760Z,65.78
2023-02-16T14:36:08.976Z,66.55
2023-02-16T14:38:42.180Z,64.13
2023-02-16T14:41:15.836Z,72.80
2023-02-16T14:43:47.253Z,63.15
2023-02-16T14:46:33.006Z,65.65
2023-02-16T14:49:06.578Z,64.93
2023-02-16T14:51:36.598Z,68.50
2023-02-16T14:54:25.090Z,62.30
2023-02-16T14:56:53.560Z,62.65
2023-02-16T14:59:41.154Z,65.82
2023-02-16T15:02:37.852Z,65.72
2023-02-16T15:05:22.220Z,57.38
2023-02-16T15:07:52.273Z,61.65
2023-02-16T15:10:26.613Z,60.63
2023-02-16T15:12:54.469Z,59.35
2023-02-16T15:15:29.248Z,60.67
2023-02-16T15:17:56.878Z,60.25
2023-02-16T15:20:29.412Z,62.20
2023-02-16T15:25:27.966Z,55.63
2023-02-16T15:28:05.846Z,60.05
2023-02-16T15:30:34.066Z,60.80
2023-02-16T15:33:03.485Z,55.97
2023-02-16T15:35:33.797Z,58.00
2023-02-16T15:38:02.145Z,54.00
2023-02-16T15:40:31.827Z,61.63
2023-02-16T15:43:04.036Z,55.58
2023-02-16T15:45:37.705Z,53.03
2023-02-16T15:48:38.173Z,52.15
2023-02-16T15:51:08.337Z,54.38
2023-02-16T15:53:42.312Z,57.00
2023-02-16T15:56:30.034Z,51.38
2023-02-16T15:58:58.549Z,52.95
2023-02-16T16:01:37.209Z,55.55
2023-02-16T16:04:16.899Z,49.92
2023-02-16T16:06:46.076Z,51.05
2023-02-16T16:09:33.656Z,55.30
2023-02-16T16:12:05.777Z,51.97
2023-02-16T16:14:37.072Z,50.53
2023-02-16T16:17:04.733Z,54.22
2023-02-16T16:19:36.310Z,56.90
2023-02-16T16:22:04.482Z,50.03
2023-02-16T16:24:39.098Z,50.25
2023-02-16T16:27:08.410Z,50.63
2023-02-16T16:29:35.564Z,46.38
2023-02-16T16:32:03.822Z,45.10
2023-02-16T16:34:38.672Z,48.60
2023-02-16T16:37:07.594Z,43.65
2023-02-16T16:39:40.356Z,45.65
2023-02-16T16:42:09.628Z,45.17
2023-02-16T16:44:38.432Z,42.10
2023-02-16T16:47:24.158Z,44.55
2023-02-16T16:49:57.078Z,45.13
2023-02-16T16:52:30.524Z,45.33
2023-02-16T16:54:57.763Z,43.78
2023-02-16T16:57:25.275Z,45.08
2023-02-16T16:59:52.468Z,47.20
2023-02-16T17:02:19.556Z,44.50
2023-02-16T17:04:46.642Z,43.53
2023-02-16T17:07:13.757Z,47.80
2023-02-16T17:09:41.068Z,45.55
2023-02-16T17:12:09.705Z,50.20
2023-02-16T17:14:36.784Z,46.47
2023-02-16T17:17:05.968Z,43.05
2023-02-16T17:19:33.035Z,49.55
2023-02-16T17:22:00.198Z,46.22
2023-02-16T17:24:27.371Z,50.50
2023-02-16T17:26:54.478Z,51.25
2023-02-16T17:29:22.532Z,50.35
2023-02-16T17:31:50.657Z,45.22
2023-02-16T17:34:17.941Z,45.35
2023-02-16T17:36:45.337Z,49.03
2023-02-16T17:39:12.423Z,56.95
2023-02-16T17:41:39.576Z,42.03
2023-02-16T17:44:06.715Z,47.08
2023-02-16T17:46:33.809Z,47.22
2023-02-16T17:49:00.939Z,46.88
2023-02-16T17:51:30.233Z,48.47
2023-02-16T17:53:57.374Z,53.50
2023-02-16T17:56:25.432Z,52.45
2023-02-16T17:58:52.604Z,53.42
2023-02-16T18:01:20.427Z,46.08
2023-02-16T18:03:47.596Z,52.75
2023-02-16T18:06:18.475Z,52.78
2023-02-16T18:08:46.075Z,53.22
2023-02-16T18:11:13.292Z,54.83
2023-02-16T18:13:40.710Z,48.55
2023-02-16T18:16:08.379Z,51.85
2023-02-16T18:18:38.885Z,54.75
2023-02-16T18:21:06.155Z,65.93
2023-02-16T18:23:33.594Z,53.17
2023-02-16T18:26:00.671Z,54.53
2023-02-16T18:28:29.488Z,55.10
2023-02-16T18:30:56.904Z,58.67
2023-02-16T18:33:24.677Z,50.53
2023-02-16T18:35:52.989Z,52.80
2023-02-16T18:38:22.070Z,58.20
2023-02-16T18:40:49.729Z,54.20
2023-02-16T18:43:16.890Z,51.70
2023-02-16T18:45:44.110Z,60.08
2023-02-16T18:48:11.265Z,58.60
2023-02-16T18:50:38.557Z,60.90
2023-02-16T18:53:05.722Z,64.68
2023-02-16T18:55:33.297Z,56.92
2023-02-16T18:58:01.332Z,55.97
2023-02-16T19:00:28.591Z,55.42
2023-02-16T19:02:56.854Z,56.30
2023-02-16T19:05:24.536Z,60.95
2023-02-16T19:07:51.751Z,57.55
2023-02-16T19:10:19.364Z,61.10
2023-02-16T19:12:46.578Z,62.30
2023-02-16T19:15:13.847Z,63.67
2023-02-16T19:17:41.318Z,64.00
2023-02-16T19:20:12.088Z,58.78
2023-02-16T19:22:39.243Z,65.82
2023-02-16T19:25:07.455Z,71.45
2023-02-16T19:27:34.594Z,66.03
2023-02-16T19:30:01.732Z,69.72
2023-02-16T19:32:28.997Z,73.40
2023-02-16T19:34:56.071Z,72.40
2023-02-16T19:37:23.161Z,76.75
2023-02-16T19:39:50.294Z,69.53
2023-02-16T19:42:17.386Z,71.95
2023-02-16T19:44:44.754Z,69.90
2023-02-16T19:47:12.006Z,73.80
2023-02-16T19:49:51.020Z,73.32
2023-02-16T19:52:18.252Z,67.45
2023-02-16T19:54:45.386Z,68.30
2023-02-16T19:57:12.720Z,64.85
2023-02-16T19:59:39.870Z,65.18
2023-02-16T20:02:07.457Z,66.07
2023-02-16T20:04:35.909Z,67.65
2023-02-16T20:07:03.285Z,66.00
2023-02-16T20:09:30.596Z,72.68
2023-02-16T20:11:57.765Z,70.57
2023-02-16T20:14:24.929Z,70.18
2023-02-16T20:16:52.116Z,67.38
2023-02-16T20:19:19.718Z,68.25
2023-02-16T20:21:46.928Z,73.60
2023-02-16T20:24:14.914Z,72.47
2023-02-16T20:26:43.972Z,70.38
2023-02-16T20:29:12.365Z,65.78
2023-02-16T20:31:41.693Z,66.70
2023-02-16T20:34:09.446Z,73.55
2023-02-16T20:36:37.543Z,64.70
2023-02-16T20:39:06.340Z,73.82
2023-02-16T20:41:34.569Z,66.63
2023-02-16T20:44:02.896Z,70.07
2023-02-16T20:46:30.079Z,70.05
2023-02-16T20:48:57.384Z,63.63
2023-02-16T20:51:25.076Z,62.63
2023-02-16T20:53:52.397Z,64.18
2023-02-16T20:56:21.576Z,66.38
2023-02-16T20:58:49.474Z,58.47
2023-02-16T21:01:19.849Z,65.72
2023-02-16T21:03:47.415Z,66.45
2023-02-16T21:06:15.232Z,68.68
2023-02-16T21:08:42.485Z,67.63
2023-02-16T21:11:10.242Z,70.20
2023-02-16T21:13:39.684Z,67.07
2023-02-16T21:16:07.450Z,66.65
2023-02-16T21:18:35.437Z,60.50
2023-02-16T21:21:05.257Z,62.10
2023-02-16T21:23:32.707Z,70.80
2023-02-16T21:26:00.837Z,62.63
2023-02-16T21:28:28.393Z,67.25
2023-02-16T21:30:56.153Z,60.75
2023-02-16T21:33:23.663Z,57.75
2023-02-16T21:36:16.184Z,62.97
2023-02-16T21:38:43.482Z,67.32
2023-02-16T21:41:29.269Z,62.88
2023-02-16T21:44:03.122Z,58.15
2023-02-16T21:46:37.833Z,60.90
2023-02-16T21:49:06.240Z,62.08
2023-02-16T21:51:34.962Z,61.60
2023-02-16T21:54:02.772Z,62.00
2023-02-16T21:56:39.273Z,61.63
2023-02-16T21:59:07.779Z,57.58
2023-02-16T22:01:36.473Z,54.60
2023-02-16T22:04:04.945Z,57.38
2023-02-16T22:06:34.212Z,55.80
2023-02-16T22:09:04.405Z,56.05
2023-02-16T22:11:31.635Z,56.20
2023-02-16T22:14:00.103Z,48.83
2023-02-16T22:16:27.973Z,53.78
2023-02-16T22:19:05.534Z,48.88
2023-02-16T22:21:36.740Z,49.83
2023-02-16T22:24:04.443Z,51.80
2023-02-16T22:26:35.780Z,47.35
2023-02-16T22:29:04.676Z,47.80
2023-02-16T22:31:32.329Z,45.90
2023-02-16T22:34:03.488Z,44.35
2023-02-16T22:36:30.838Z,47.80
2023-02-16T22:38:58.410Z,43.22
2023-02-16T22:41:26.031Z,46.83
2023-02-16T22:43:54.434Z,51.35
2023-02-16T22:46:22.497Z,46.42
2023-02-16T22:48:49.607Z,47.85
2023-02-16T22:51:17.561Z,48.13
2023-02-16T22:53:44.775Z,48.58
2023-02-16T22:56:13.770Z,44.60
2023-02-16T22:58:41.081Z,46.28
2023-02-16T23:01:15.245Z,46.25
2023-02-16T23:03:42.903Z,44.53
2023-02-16T23:06:17.520Z,47.03
2023-02-16T23:08:45.248Z,41.28
2023-02-16T23:11:12.955Z,43.22
2023-02-16T23:13:40.454Z,41.75
2023-02-16T23:16:17.539Z,42.67
2023-02-16T23:18:45.108Z,44.75
2023-02-16T23:21:22.673Z,44.50
2023-02-16T23:23:50.320Z,42.15
2023-02-16T23:26:18.267Z,42.80
2023-02-16T23:28:45.723Z,42.08
2023-02-16T23:31:13.330Z,43.85
2023-02-16T23:33:40.591Z,43.42
2023-02-16T23:36:08.053Z,42.33
2023-02-16T23:38:35.598Z,45.30
2023-02-16T23:41:05.133Z,47.42
2023-02-16T23:43:32.442Z,41.13
2023-02-16T23:46:02.955Z,41.20
2023-02-16T23:48:30.355Z,44.88
2023-02-16T23:50:57.758Z,44.38
2023-02-16T23:53:25.477Z,42.17
2023-02-16T23:56:03.232Z,42.95
2023-02-16T23:58:31.520Z,44.58
